Time;durP1;ratioP1;P1;durP2;ratioP2;P2;SDS_P1;SDS_P2;PMS_P1;PMS_P2;Temp;Humidity;BMP_temperature;BMP_pressure;BME280_temperature;BME280_humidity;BME280_pressure;Samples;Min_cycle;Max_cycle;Signal;HPM_P1;HPM_P2
2022/09/03 00:01:52;;;;;;;0.00;0.00;;;23.90;50.90;;;;;;4173534;28;20114;-64
2022/09/03 00:04:43;;;;;;;0.00;0.00;;;23.90;50.90;;;;;;4162534;28;20115;-67
2022/09/03 00:07:37;;;;;;;0.00;0.00;;;23.90;51.00;;;;;;4161950;28;20541;-65
2022/09/03 00:10:32;;;;;;;0.00;0.00;;;23.90;51.00;;;;;;4203850;28;20043;-66
2022/09/03 00:13:23;;;;;;;0.00;0.00;;;23.80;50.90;;;;;;4192933;28;20061;-65
2022/09/03 00:16:13;;;;;;;0.00;0.00;;;23.80;50.80;;;;;;4205906;28;20047;-65
2022/09/03 00:19:04;;;;;;;0.10;0.10;;;23.80;50.90;;;;;;4206134;28;20054;-65
2022/09/03 00:21:51;;;;;;;0.00;0.00;;;23.80;50.90;;;;;;4204578;28;20117;-67
2022/09/03 00:24:48;;;;;;;;;;;23.80;50.80;;;;;;4173968;28;20063;-65
2022/09/03 00:27:49;;;;;;;0.00;0.00;;;23.80;50.90;;;;;;4178623;28;19927;-66
2022/09/03 00:30:34;;;;;;;0.00;0.00;;;23.70;50.90;;;;;;4171935;28;20060;-67
2022/09/03 00:33:24;;;;;;;0.45;0.45;;;23.80;51.00;;;;;;4196479;28;20047;-66
2022/09/03 00:36:20;;;;;;;0.08;0.08;;;23.70;51.00;;;;;;4195860;28;20061;-66
2022/09/03 00:39:02;;;;;;;0.00;0.00;;;23.70;51.10;;;;;;4200192;28;20631;-66
2022/09/03 00:41:58;;;;;;;0.22;0.20;;;23.70;51.10;;;;;;4171900;28;20125;-66
2022/09/03 00:45:08;;;;;;;0.00;0.00;;;23.60;51.20;;;;;;4168934;28;20060;-67
2022/09/03 00:48:05;;;;;;;0.00;0.00;;;23.60;51.30;;;;;;4165584;28;20063;-66
2022/09/03 00:51:04;;;;;;;0.10;0.10;;;23.60;51.20;;;;;;4209469;28;20411;-66
2022/09/03 00:53:59;;;;;;;0.00;0.00;;;23.60;51.40;;;;;;4194943;28;20216;-67
2022/09/03 00:56:52;;;;;;;0.00;0.00;;;23.60;51.30;;;;;;4178105;28;20533;-65
2022/09/03 00:59:55;;;;;;;0.00;0.00;;;23.60;51.20;;;;;;4179473;28;20088;-67
2022/09/03 01:06:19;;;;;;;0.00;0.00;;;23.60;51.40;;;;;;4187187;28;20106;-65
2022/09/03 01:09:17;;;;;;;0.00;0.00;;;23.60;51.40;;;;;;4176982;28;20807;-65
2022/09/03 01:12:12;;;;;;;0.00;0.00;;;23.50;51.30;;;;;;4183043;28;20574;-65
2022/09/03 01:15:12;;;;;;;0.00;0.00;;;23.50;51.20;;;;;;4207424;28;20043;-66
2022/09/03 01:18:12;;;;;;;0.00;0.00;;;23.50;51.20;;;;;;4187818;28;20071;-66
2022/09/03 01:21:19;;;;;;;0.00;0.00;;;23.50;51.00;;;;;;4207978;28;20054;-65
2022/09/03 01:24:35;;;;;;;0.00;0.00;;;23.50;51.10;;;;;;4204911;28;20066;-66
2022/09/03 01:27:34;;;;;;;0.00;0.00;;;23.50;51.00;;;;;;4161754;28;20479;-68
2022/09/03 01:30:22;;;;;;;0.00;0.00;;;23.50;50.70;;;;;;4173290;28;20188;-67
2022/09/03 01:33:18;;;;;;;0.73;0.65;;;23.50;50.70;;;;;;4189974;28;20073;-68
2022/09/03 01:36:36;;;;;;;0.00;0.00;;;23.40;50.50;;;;;;4167251;28;20059;-66
2022/09/03 01:39:40;;;;;;;0.08;0.08;;;23.40;50.40;;;;;;4174899;28;20047;-66
2022/09/03 01:42:32;;;;;;;0.00;0.00;;;23.40;50.00;;;;;;4180840;28;20051;-67
2022/09/03 01:45:43;;;;;;;0.00;0.00;;;23.40;49.70;;;;;;4202456;28;20071;-67
2022/09/03 01:48:41;;;;;;;0.00;0.00;;;23.30;49.90;;;;;;4206893;28;20058;-67
2022/09/03 01:51:30;;;;;;;0.00;0.00;;;23.30;50.00;;;;;;4197685;28;20190;-68
2022/09/03 01:54:41;;;;;;;0.00;0.00;;;23.30;50.60;;;;;;4191485;28;20081;-66
2022/09/03 01:57:46;;;;;;;0.10;0.10;;;23.30;50.70;;;;;;4174065;28;20124;-66
2022/09/03 02:00:41;;;;;;;1.00;0.93;;;23.20;50.60;;;;;;4190015;28;20101;-65
2022/09/03 02:03:33;;;;;;;0.00;0.00;;;23.20;50.60;;;;;;4188031;28;20063;-68
2022/09/03 02:06:19;;;;;;;0.00;0.00;;;23.20;50.70;;;;;;4188309;28;20055;-65
2022/09/03 02:09:08;;;;;;;0.00;0.00;;;23.20;50.70;;;;;;4170152;28;20126;-66
2022/09/03 02:12:13;;;;;;;0.00;0.00;;;23.10;50.80;;;;;;4183373;28;20059;-67
2022/09/03 02:14:56;;;;;;;0.00;0.00;;;23.10;50.70;;;;;;4177532;28;20047;-66
2022/09/03 02:17:58;;;;;;;0.55;0.55;;;23.10;50.90;;;;;;4166555;28;20051;-65
2022/09/03 02:24:13;;;;;;;;;;;;;;;;;;;;;
2022/09/03 02:27:01;;;;;;;0.10;0.10;;;23.10;50.20;;;;;;4202817;28;20059;-66
2022/09/03 02:29:48;;;;;;;0.25;0.25;;;23.10;49.70;;;;;;4172184;28;20438;-66
2022/09/03 02:32:32;;;;;;;0.00;0.00;;;23.10;49.90;;;;;;4196892;28;20051;-68
2022/09/03 02:35:16;;;;;;;0.00;0.00;;;23.00;51.40;;;;;;4195719;28;20063;-66
2022/09/03 02:38:16;;;;;;;0.00;0.00;;;23.00;50.90;;;;;;4166990;28;20424;-66
2022/09/03 02:41:08;;;;;;;0.00;0.00;;;23.00;51.20;;;;;;4187171;28;20055;-65
2022/09/03 02:44:11;;;;;;;0.00;0.00;;;23.00;51.30;;;;;;4188423;28;20393;-65
2022/09/03 02:46:59;;;;;;;0.00;0.00;;;23.00;51.40;;;;;;4173499;28;20669;-65
2022/09/03 02:49:49;;;;;;;0.00;0.00;;;23.00;52.10;;;;;;4194259;28;20056;-67
2022/09/03 02:52:53;;;;;;;0.00;0.00;;;22.90;51.50;;;;;;4197953;28;20055;-67
2022/09/03 02:55:40;;;;;;;0.00;0.00;;;22.90;51.50;;;;;;4199210;28;20133;-65
2022/09/03 02:58:25;;;;;;;0.00;0.00;;;22.90;51.60;;;;;;4183517;28;20054;-67
2022/09/03 03:01:08;;;;;;;0.00;0.00;;;22.90;51.60;;;;;;4190041;28;20052;-66
2022/09/03 03:04:01;;;;;;;0.00;0.00;;;22.90;51.40;;;;;;4165480;28;20052;-66
2022/09/03 03:06:43;;;;;;;0.00;0.00;;;22.90;51.40;;;;;;4187587;28;20052;-66
2022/09/03 03:09:27;;;;;;;0.70;0.45;;;22.90;51.50;;;;;;4190769;28;20504;-65
2022/09/03 03:12:14;;;;;;;5.00;1.98;;;22.90;51.70;;;;;;4191608;28;20056;-65
2022/09/03 03:15:23;;;;;;;0.00;0.00;;;22.90;51.80;;;;;;4178040;28;20415;-65
2022/09/03 03:18:17;;;;;;;5.00;0.60;;;22.90;51.60;;;;;;4199793;28;20059;-67
2022/09/03 03:21:05;;;;;;;0.00;0.00;;;22.90;51.50;;;;;;4175898;28;20067;-65
2022/09/03 03:23:48;;;;;;;0.00;0.00;;;22.90;51.40;;;;;;4178021;28;20063;-66
2022/09/03 03:26:47;;;;;;;0.00;0.00;;;22.90;51.50;;;;;;4200307;28;20470;-66
2022/09/03 03:29:30;;;;;;;0.08;0.08;;;22.90;51.50;;;;;;4189216;28;20043;-66
2022/09/03 03:32:38;;;;;;;0.00;0.00;;;22.90;51.60;;;;;;4191435;28;20129;-65
2022/09/03 03:35:23;;;;;;;0.00;0.00;;;22.90;51.60;;;;;;4189613;28;20059;-66
2022/09/03 03:38:08;;;;;;;0.00;0.00;;;22.90;51.60;;;;;;4206609;28;20070;-66
2022/09/03 03:40:51;;;;;;;0.00;0.00;;;22.90;51.50;;;;;;4206948;28;20563;-66
2022/09/03 03:43:36;;;;;;;0.00;0.00;;;22.80;51.40;;;;;;4197883;28;20062;-67
2022/09/03 03:46:24;;;;;;;0.30;0.30;;;22.80;51.50;;;;;;4191313;28;20069;-68
2022/09/03 03:49:33;;;;;;;0.00;0.00;;;22.80;51.40;;;;;;4184633;28;20186;-66
2022/09/03 03:52:16;;;;;;;0.00;0.00;;;22.80;51.10;;;;;;4176762;28;20052;-66
2022/09/03 03:55:16;;;;;;;0.00;0.00;;;22.80;51.00;;;;;;4197772;28;20125;-66
2022/09/03 03:57:59;;;;;;;0.00;0.00;;;22.80;51.30;;;;;;4181328;28;20059;-64
2022/09/03 04:00:55;;;;;;;0.00;0.00;;;22.80;51.40;;;;;;4180378;28;20048;-66
2022/09/03 04:03:42;;;;;;;0.10;0.10;;;22.80;51.30;;;;;;4201462;28;20047;-66
2022/09/03 04:06:32;;;;;;;0.00;0.00;;;22.70;51.30;;;;;;4178697;28;20601;-66
2022/09/03 04:09:16;;;;;;;0.10;0.10;;;22.70;51.60;;;;;;4205152;28;20055;-66
2022/09/03 04:11:58;;;;;;;0.00;0.00;;;22.70;51.70;;;;;;4217374;28;20039;-66
2022/09/03 04:14:42;;;;;;;0.00;0.00;;;22.70;51.80;;;;;;4188092;28;20051;-66
2022/09/03 04:17:25;;;;;;;0.00;0.00;;;22.70;51.50;;;;;;4150106;28;20060;-68
2022/09/03 04:20:10;;;;;;;0.00;0.00;;;22.70;51.60;;;;;;4173563;28;20060;-67
2022/09/03 04:22:52;;;;;;;0.00;0.00;;;22.60;51.60;;;;;;4198009;28;20050;-68
2022/09/03 04:25:40;;;;;;;0.00;0.00;;;22.60;51.80;;;;;;4192074;28;20433;-67
2022/09/03 04:28:24;;;;;;;0.00;0.00;;;22.60;51.50;;;;;;4207115;28;20070;-67
2022/09/03 04:31:09;;;;;;;0.00;0.00;;;22.60;51.80;;;;;;4185848;28;20059;-69
2022/09/03 04:34:00;;;;;;;0.00;0.00;;;22.60;51.90;;;;;;4199295;28;20438;-67
2022/09/03 04:36:56;;;;;;;0.00;0.00;;;22.60;51.50;;;;;;4202249;28;20063;-69
2022/09/03 04:39:43;;;;;;;0.10;0.10;;;22.60;51.70;;;;;;4195325;28;20129;-68
2022/09/03 04:42:29;;;;;;;0.00;0.00;;;22.60;51.80;;;;;;4190692;28;20086;-66
2022/09/03 04:45:19;;;;;;;0.17;0.17;;;22.60;51.80;;;;;;4162012;28;20071;-66
2022/09/03 04:51:04;;;;;;;;;;;22.60;51.80;;;;;;4194923;28;20202;-62
2022/09/03 04:54:02;;;;;;;0.00;0.00;;;22.60;52.10;;;;;;4174997;28;20426;-67
2022/09/03 04:56:47;;;;;;;0.00;0.00;;;22.60;52.50;;;;;;4184288;28;20054;-67
2022/09/03 04:59:36;;;;;;;0.00;0.00;;;22.60;52.30;;;;;;4198022;28;20104;-66
2022/09/03 05:02:21;;;;;;;0.00;0.00;;;22.60;52.50;;;;;;4213040;28;20073;-67
2022/09/03 05:05:09;;;;;;;1.20;1.10;;;22.60;52.50;;;;;;4208073;28;20144;-67
2022/09/03 05:07:52;;;;;;;;;;;22.60;52.50;;;;;;4201850;28;20510;-66
2022/09/03 05:10:43;;;;;;;0.35;0.35;;;22.60;52.50;;;;;;4190535;28;19950;-66
2022/09/03 05:13:25;;;;;;;0.00;0.00;;;22.60;52.60;;;;;;4164059;28;20055;-65
2022/09/03 05:16:10;;;;;;;0.00;0.00;;;22.50;52.40;;;;;;4141182;28;20126;-65
2022/09/03 05:18:53;;;;;;;0.00;0.00;;;22.50;52.70;;;;;;4188493;28;20529;-67
2022/09/03 05:21:35;;;;;;;0.00;0.00;;;22.50;52.60;;;;;;4189413;28;20402;-65
2022/09/03 05:24:18;;;;;;;0.00;0.00;;;22.50;52.50;;;;;;4188947;28;20169;-66
2022/09/03 05:27:01;;;;;;;0.00;0.00;;;22.50;52.60;;;;;;4190992;28;20130;-65
2022/09/03 05:29:42;;;;;;;0.00;0.00;;;22.50;52.50;;;;;;4191989;28;20043;-65
2022/09/03 05:32:28;;;;;;;0.00;0.00;;;22.50;52.60;;;;;;4187228;28;21220;-65
2022/09/03 05:35:10;;;;;;;0.00;0.00;;;22.50;52.50;;;;;;4171632;28;20097;-63
2022/09/03 05:37:56;;;;;;;0.00;0.00;;;22.50;52.50;;;;;;4181524;28;20056;-63
2022/09/03 05:40:45;;;;;;;0.00;0.00;;;22.50;52.30;;;;;;4183121;28;20119;-63
2022/09/03 05:43:32;;;;;;;0.00;0.00;;;22.50;52.30;;;;;;4188976;28;20105;-65
2022/09/03 05:46:17;;;;;;;0.00;0.00;;;22.50;52.30;;;;;;4188113;28;20506;-63
2022/09/03 05:49:06;;;;;;;0.00;0.00;;;22.50;52.40;;;;;;4188360;28;20141;-63
2022/09/03 05:51:52;;;;;;;0.00;0.00;;;22.50;52.40;;;;;;4189311;28;20149;-63
2022/09/03 05:54:34;;;;;;;0.00;0.00;;;22.50;52.30;;;;;;4187035;28;20071;-63
2022/09/03 05:57:25;;;;;;;0.00;0.00;;;22.50;52.40;;;;;;4201364;28;20560;-64
2022/09/03 06:00:11;;;;;;;0.00;0.00;;;22.40;52.10;;;;;;4207219;28;20132;-64
2022/09/03 06:02:54;;;;;;;0.40;0.40;;;22.40;52.30;;;;;;4189181;28;20407;-64
2022/09/03 06:05:39;;;;;;;0.00;0.00;;;22.40;52.30;;;;;;4201369;28;20063;-65
2022/09/03 06:08:43;;;;;;;0.00;0.00;;;22.40;52.20;;;;;;4205361;28;20055;-65
2022/09/03 06:11:29;;;;;;;0.35;0.35;;;22.40;52.10;;;;;;4206580;28;20133;-64
2022/09/03 06:14:22;;;;;;;0.00;0.00;;;22.40;52.00;;;;;;4205812;28;20055;-65
2022/09/03 06:17:05;;;;;;;0.00;0.00;;;22.40;51.90;;;;;;4208273;28;20070;-65
2022/09/03 06:19:50;;;;;;;0.00;0.00;;;22.40;52.00;;;;;;4206739;28;20070;-64
2022/09/03 06:22:34;;;;;;;0.40;0.40;;;22.40;52.10;;;;;;4208338;28;20526;-65
2022/09/03 06:25:16;;;;;;;0.10;0.10;;;22.40;51.90;;;;;;4208781;28;20508;-65
2022/09/03 06:28:00;;;;;;;0.03;0.03;;;22.40;52.10;;;;;;4191694;28;20038;-65
2022/09/03 06:30:43;;;;;;;0.80;0.28;;;22.40;52.10;;;;;;4194092;28;20178;-66
2022/09/03 06:33:30;;;;;;;0.03;0.03;;;22.30;51.90;;;;;;4209360;28;20136;-64
2022/09/03 06:36:13;;;;;;;0.10;0.10;;;22.40;52.20;;;;;;4198624;28;20490;-65
2022/09/03 06:38:56;;;;;;;0.00;0.00;;;22.30;51.90;;;;;;4192810;28;20047;-64
2022/09/03 06:41:43;;;;;;;0.00;0.00;;;22.30;51.80;;;;;;4157071;28;20056;-66
2022/09/03 06:44:25;;;;;;;0.00;0.00;;;22.30;52.10;;;;;;4179698;28;20129;-66
2022/09/03 06:47:09;;;;;;;0.00;0.00;;;22.30;52.20;;;;;;4191642;28;20050;-66
2022/09/03 06:49:53;;;;;;;0.00;0.00;;;22.40;52.00;;;;;;4161144;28;20518;-66
2022/09/03 06:52:35;;;;;;;0.00;0.00;;;22.40;52.00;;;;;;4202910;28;20182;-65
2022/09/03 06:55:18;;;;;;;0.00;0.00;;;22.30;52.20;;;;;;4191542;28;20051;-66
2022/09/03 06:58:02;;;;;;;0.00;0.00;;;22.40;52.10;;;;;;4193370;28;20412;-66
2022/09/03 07:00:54;;;;;;;0.00;0.00;;;22.40;52.20;;;;;;4187418;28;20059;-65
2022/09/03 07:03:44;;;;;;;0.10;0.10;;;22.40;52.50;;;;;;4182642;28;20143;-66
2022/09/03 07:06:29;;;;;;;0.00;0.00;;;22.30;52.40;;;;;;4182971;28;20666;-65
2022/09/03 07:09:12;;;;;;;0.00;0.00;;;22.40;52.30;;;;;;4190965;28;20435;-65
2022/09/03 07:11:54;;;;;;;0.00;0.00;;;22.30;52.10;;;;;;4186179;28;20059;-64
2022/09/03 07:14:35;;;;;;;0.73;0.73;;;22.30;52.20;;;;;;4185985;28;20060;-65
2022/09/03 07:17:17;;;;;;;0.00;0.00;;;22.30;52.50;;;;;;4192113;28;20406;-64
2022/09/03 07:20:01;;;;;;;0.00;0.00;;;22.30;53.20;;;;;;4204183;28;20186;-64
2022/09/03 07:22:43;;;;;;;0.00;0.00;;;22.30;52.40;;;;;;4201284;28;20055;-64
2022/09/03 07:25:27;;;;;;;0.00;0.00;;;22.40;52.50;;;;;;4198888;28;20382;-60
2022/09/03 07:28:10;;;;;;;0.10;0.10;;;22.50;52.40;;;;;;4199334;28;20048;-60
2022/09/03 07:30:55;;;;;;;0.00;0.00;;;22.50;52.00;;;;;;4177894;28;20067;-60
2022/09/03 07:33:37;;;;;;;0.00;0.00;;;22.60;52.10;;;;;;4182920;28;20051;-61
2022/09/03 07:36:20;;;;;;;0.00;0.00;;;22.70;52.00;;;;;;4193794;28;20448;-61
2022/09/03 07:39:03;;;;;;;0.00;0.00;;;22.70;51.70;;;;;;4188389;28;20051;-61
2022/09/03 07:41:57;;;;;;;0.00;0.00;;;22.80;51.60;;;;;;4197118;28;20055;-60
2022/09/03 07:44:43;;;;;;;0.00;0.00;;;22.80;51.50;;;;;;4188878;28;20510;-61
2022/09/03 07:47:25;;;;;;;0.10;0.10;;;22.90;51.60;;;;;;4185158;28;20184;-60
2022/09/03 07:50:12;;;;;;;0.17;0.17;;;22.90;51.40;;;;;;4189721;28;20609;-60
2022/09/03 07:52:58;;;;;;;0.00;0.00;;;23.00;51.40;;;;;;4178315;28;20412;-60
2022/09/03 07:55:40;;;;;;;0.10;0.10;;;23.00;51.30;;;;;;4163550;28;20059;-63
2022/09/03 07:58:23;;;;;;;0.17;0.17;;;23.00;51.20;;;;;;4181956;28;20538;-62
2022/09/03 08:01:07;;;;;;;0.00;0.00;;;23.10;51.40;;;;;;4188588;28;20540;-62
2022/09/03 08:03:50;;;;;;;0.00;0.00;;;23.10;51.10;;;;;;4190367;28;20110;-61
2022/09/03 08:06:34;;;;;;;0.00;0.00;;;23.20;51.00;;;;;;4191334;28;20063;-60
2022/09/03 08:09:20;;;;;;;0.00;0.00;;;23.20;51.00;;;;;;4183505;28;20048;-60
2022/09/03 08:12:03;;;;;;;2.05;0.65;;;23.20;50.90;;;;;;4176456;28;20056;-59
2022/09/03 08:14:45;;;;;;;0.00;0.00;;;23.20;50.60;;;;;;4170451;28;20546;-59
2022/09/03 08:17:27;;;;;;;0.00;0.00;;;23.20;50.70;;;;;;4186981;28;20984;-59
2022/09/03 08:20:12;;;;;;;0.00;0.00;;;23.30;50.70;;;;;;4186635;28;20506;-60
2022/09/03 08:23:02;;;;;;;0.00;0.00;;;23.30;50.70;;;;;;4187135;28;20059;-60
2022/09/03 08:25:49;;;;;;;0.00;0.00;;;23.30;50.70;;;;;;4182665;28;20118;-60
2022/09/03 08:28:33;;;;;;;0.00;0.00;;;23.30;50.30;;;;;;4163340;28;20059;-60
2022/09/03 08:31:19;;;;;;;0.00;0.00;;;23.40;50.30;;;;;;4176776;28;20177;-60
2022/09/03 08:34:05;;;;;;;0.00;0.00;;;23.40;50.40;;;;;;4171778;28;20052;-61
2022/09/03 08:36:53;;;;;;;0.00;0.00;;;23.40;50.30;;;;;;4186443;28;20122;-60
2022/09/03 08:39:35;;;;;;;0.20;0.20;;;23.40;50.50;;;;;;4185811;28;20055;-61
2022/09/03 08:42:34;;;;;;;0.00;0.00;;;23.40;50.30;;;;;;4172698;28;20094;-61
2022/09/03 08:45:21;;;;;;;0.00;0.00;;;23.50;50.40;;;;;;4178521;28;20055;-60
2022/09/03 08:48:10;;;;;;;0.10;0.10;;;23.50;50.30;;;;;;4167024;28;20063;-61
2022/09/03 08:50:59;;;;;;;0.00;0.00;;;23.50;50.10;;;;;;4173216;28;20064;-60
2022/09/03 08:53:47;;;;;;;0.00;0.00;;;23.50;50.20;;;;;;4178896;28;20125;-60
2022/09/03 08:56:31;;;;;;;0.00;0.00;;;23.50;50.10;;;;;;4183228;28;20498;-60
2022/09/03 08:59:15;;;;;;;0.13;0.13;;;23.60;50.10;;;;;;4187929;28;20270;-60
2022/09/03 09:02:15;;;;;;;0.35;0.35;;;23.60;49.80;;;;;;4192430;28;20067;-60
2022/09/03 09:05:18;;;;;;;0.00;0.00;;;23.60;49.60;;;;;;4178996;28;20051;-60
2022/09/03 09:08:17;;;;;;;0.00;0.00;;;23.60;49.90;;;;;;4184610;28;20060;-60
2022/09/03 09:11:07;;;;;;;0.00;0.00;;;23.60;49.90;;;;;;4184344;28;20051;-61
2022/09/03 09:13:58;;;;;;;0.00;0.00;;;23.70;49.80;;;;;;4190334;28;20124;-60
2022/09/03 09:16:46;;;;;;;;;;;23.70;49.90;;;;;;4194210;28;20067;-61
2022/09/03 09:19:41;;;;;;;0.00;0.00;;;23.70;50.00;;;;;;4202953;28;19931;-61
2022/09/03 09:22:29;;;;;;;0.00;0.00;;;23.70;49.80;;;;;;4188335;28;20056;-61
2022/09/03 09:25:15;;;;;;;0.10;0.10;;;23.80;49.80;;;;;;4184449;28;20462;-61
2022/09/03 09:28:03;;;;;;;0.00;0.00;;;23.70;49.60;;;;;;4180183;28;20055;-61
2022/09/03 09:30:48;;;;;;;0.52;0.52;;;23.80;49.50;;;;;;4203252;28;20062;-61
2022/09/03 09:33:33;;;;;;;1.10;1.00;;;23.80;50.30;;;;;;4198059;28;20051;-61
2022/09/03 09:36:18;;;;;;;0.00;0.00;;;23.80;49.70;;;;;;4173938;28;20185;-61
2022/09/03 09:39:09;;;;;;;0.85;0.85;;;23.80;49.60;;;;;;4182909;28;20125;-61
2022/09/03 09:41:58;;;;;;;0.00;0.00;;;23.90;49.50;;;;;;4184836;28;20404;-61
2022/09/03 09:44:43;;;;;;;0.00;0.00;;;23.90;49.40;;;;;;4190023;28;20517;-61
2022/09/03 09:47:30;;;;;;;0.00;0.00;;;23.90;49.30;;;;;;4183121;28;20060;-61
2022/09/03 09:50:20;;;;;;;0.00;0.00;;;23.90;49.20;;;;;;4182809;28;20058;-62
2022/09/03 09:53:15;;;;;;;0.00;0.00;;;24.00;49.20;;;;;;4202421;28;20059;-62
2022/09/03 09:55:57;;;;;;;0.00;0.00;;;24.10;49.30;;;;;;4188645;28;20529;-61
2022/09/03 09:58:39;;;;;;;0.00;0.00;;;24.10;49.20;;;;;;4198443;28;20055;-60
2022/09/03 10:01:24;;;;;;;;;;;24.10;49.20;;;;;;4196827;28;20055;-61
2022/09/03 10:04:12;;;;;;;0.00;0.00;;;24.10;49.10;;;;;;4204730;28;19930;-63
2022/09/03 10:06:57;;;;;;;0.00;0.00;;;24.20;48.90;;;;;;4181498;28;20128;-64
2022/09/03 10:09:38;;;;;;;0.00;0.00;;;24.20;48.90;;;;;;4187231;28;20051;-65
2022/09/03 10:12:25;;;;;;;0.00;0.00;;;24.20;48.90;;;;;;4184050;28;20075;-65
2022/09/03 10:15:18;;;;;;;0.00;0.00;;;24.30;48.60;;;;;;4182647;28;20067;-65
2022/09/03 10:18:07;;;;;;;0.00;0.00;;;24.30;48.60;;;;;;4188495;28;21215;-64
2022/09/03 10:20:53;;;;;;;1.38;0.98;;;24.30;48.40;;;;;;4168804;28;20594;-63
2022/09/03 10:23:55;;;;;;;0.30;0.30;;;24.40;48.50;;;;;;4180494;28;20127;-64
2022/09/03 10:26:37;;;;;;;0.00;0.00;;;24.40;48.40;;;;;;4175218;28;20048;-64
2022/09/03 10:29:28;;;;;;;0.00;0.00;;;24.40;48.20;;;;;;4183243;28;20052;-63
2022/09/03 10:32:36;;;;;;;0.00;0.00;;;24.50;48.30;;;;;;4177651;28;20154;-65
2022/09/03 10:35:27;;;;;;;0.10;0.10;;;24.50;48.20;;;;;;4202815;28;20164;-64
2022/09/03 10:38:18;;;;;;;0.00;0.00;;;24.50;47.80;;;;;;4200365;28;20547;-64
2022/09/03 10:41:12;;;;;;;0.32;0.32;;;24.60;47.70;;;;;;4187952;28;20067;-65
2022/09/03 10:44:34;;;;;;;0.00;0.00;;;24.60;47.80;;;;;;4187034;28;20055;-64
2022/09/03 10:47:31;;;;;;;0.00;0.00;;;24.60;47.70;;;;;;4191818;28;20503;-64
2022/09/03 10:50:16;;;;;;;0.00;0.00;;;24.70;47.40;;;;;;4192123;28;20055;-64
2022/09/03 10:53:12;;;;;;;0.00;0.00;;;24.70;47.40;;;;;;4195728;28;20514;-64
2022/09/03 10:56:01;;;;;;;0.00;0.00;;;24.70;47.00;;;;;;4175081;28;20770;-64
2022/09/03 10:58:57;;;;;;;0.00;0.00;;;24.80;47.20;;;;;;4180288;28;20621;-65
2022/09/03 11:01:47;;;;;;;0.00;0.00;;;24.80;46.80;;;;;;4184683;28;20055;-65
2022/09/03 11:04:35;;;;;;;0.00;0.00;;;24.80;46.90;;;;;;4177630;28;20052;-64
2022/09/03 11:07:25;;;;;;;0.32;0.32;;;24.80;46.80;;;;;;4175842;28;20080;-64
2022/09/03 11:10:15;;;;;;;0.00;0.00;;;24.80;46.70;;;;;;4173134;28;20048;-64
2022/09/03 11:13:05;;;;;;;0.00;0.00;;;24.90;46.80;;;;;;4201390;28;20166;-63
2022/09/03 11:15:52;;;;;;;0.00;0.00;;;24.90;46.60;;;;;;4191375;28;20324;-64
2022/09/03 11:18:38;;;;;;;0.00;0.00;;;24.90;46.00;;;;;;4200289;28;20050;-65
2022/09/03 11:21:23;;;;;;;3.30;0.47;;;25.00;46.10;;;;;;4173770;28;20412;-64
2022/09/03 11:24:12;;;;;;;0.00;0.00;;;25.00;46.10;;;;;;4177929;28;20044;-65
2022/09/03 11:27:03;;;;;;;0.00;0.00;;;25.00;45.90;;;;;;4175685;28;20060;-65
2022/09/03 11:29:51;;;;;;;0.15;0.15;;;25.00;45.70;;;;;;4198970;28;20056;-66
2022/09/03 11:32:45;;;;;;;0.05;0.05;;;25.00;45.70;;;;;;4176255;28;20243;-64
2022/09/03 11:35:30;;;;;;;0.00;0.00;;;25.00;45.30;;;;;;4174317;28;20514;-65
2022/09/03 11:38:23;;;;;;;0.00;0.00;;;25.10;45.30;;;;;;4189565;28;20055;-64
2022/09/03 11:41:13;;;;;;;0.00;0.00;;;25.10;45.30;;;;;;4188517;28;20498;-64
2022/09/03 11:43:54;;;;;;;0.00;0.00;;;25.10;44.70;;;;;;4180629;28;20079;-64
2022/09/03 11:46:36;;;;;;;0.00;0.00;;;25.10;44.70;;;;;;4182034;28;20071;-65
2022/09/03 11:49:28;;;;;;;0.00;0.00;;;25.20;44.70;;;;;;4183878;28;20059;-65
2022/09/03 11:52:11;;;;;;;0.00;0.00;;;25.20;44.80;;;;;;4186153;28;20174;-64
2022/09/03 11:54:52;;;;;;;0.00;0.00;;;25.20;44.10;;;;;;4180981;28;20400;-64
2022/09/03 11:57:42;;;;;;;0.00;0.00;;;25.20;44.20;;;;;;4175123;28;20430;-64
2022/09/03 12:00:24;;;;;;;0.00;0.00;;;25.20;43.70;;;;;;4178446;28;20795;-64
2022/09/03 12:03:07;;;;;;;0.00;0.00;;;25.30;43.70;;;;;;4187668;28;20051;-64
2022/09/03 12:06:03;;;;;;;0.00;0.00;;;25.30;43.80;;;;;;4182743;28;20062;-64
2022/09/03 12:09:07;;;;;;;0.00;0.00;;;25.30;43.70;;;;;;4174704;28;20190;-65
2022/09/03 12:12:04;;;;;;;0.00;0.00;;;25.30;43.90;;;;;;4183044;28;20545;-65
2022/09/03 12:14:56;;;;;;;0.50;0.50;;;25.30;43.50;;;;;;4199265;28;20128;-65
2022/09/03 12:18:17;;;;;;;0.00;0.00;;;25.30;43.60;;;;;;4185496;28;20055;-65
2022/09/03 12:21:07;;;;;;;0.00;0.00;;;25.30;43.70;;;;;;4188450;28;20490;-64
2022/09/03 12:23:54;;;;;;;0.00;0.00;;;25.40;43.70;;;;;;4190535;28;20075;-65
2022/09/03 12:26:41;;;;;;;0.20;0.20;;;25.40;43.60;;;;;;4192486;28;20965;-65
2022/09/03 12:29:26;;;;;;;0.00;0.00;;;25.40;43.30;;;;;;4191748;28;20075;-65
2022/09/03 12:32:12;;;;;;;6.82;2.20;;;25.40;43.70;;;;;;4189585;28;20078;-65
2022/09/03 12:34:53;;;;;;;0.00;0.00;;;25.50;43.50;;;;;;4200703;28;20067;-65
2022/09/03 12:37:38;;;;;;;0.00;0.00;;;25.50;43.50;;;;;;4189789;28;20109;-65
2022/09/03 12:40:43;;;;;;;0.00;0.00;;;25.50;42.90;;;;;;4189692;28;20431;-65
2022/09/03 12:43:51;;;;;;;0.00;0.00;;;25.50;42.60;;;;;;4191440;28;20092;-65
2022/09/03 12:46:34;;;;;;;0.00;0.00;;;25.50;42.70;;;;;;4200374;28;20055;-65
2022/09/03 12:49:15;;;;;;;0.00;0.00;;;25.60;42.70;;;;;;4188102;28;20060;-65
2022/09/03 12:52:18;;;;;;;0.00;0.00;;;25.60;42.70;;;;;;4199236;28;20109;-65
2022/09/03 12:55:06;;;;;;;0.00;0.00;;;25.60;42.50;;;;;;4189368;28;20056;-65
2022/09/03 12:57:52;;;;;;;0.00;0.00;;;25.60;42.70;;;;;;4198928;28;20129;-64
2022/09/03 13:00:42;;;;;;;0.00;0.00;;;25.60;42.90;;;;;;4195187;28;20539;-63
2022/09/03 13:03:29;;;;;;;0.10;0.10;;;25.60;42.90;;;;;;4193407;28;20063;-64
2022/09/03 13:06:14;;;;;;;0.00;0.00;;;25.60;41.60;;;;;;4199394;28;20490;-64
2022/09/03 13:08:58;;;;;;;0.00;0.00;;;25.60;42.40;;;;;;4188302;28;20510;-64
2022/09/03 13:11:43;;;;;;;0.00;0.00;;;25.70;41.70;;;;;;4189206;28;20056;-64
2022/09/03 13:14:26;;;;;;;0.00;0.00;;;25.70;42.40;;;;;;4187099;28;20055;-64
2022/09/03 13:17:46;;;;;;;0.00;0.00;;;25.70;42.40;;;;;;4195198;28;20063;-65
2022/09/03 13:20:34;;;;;;;0.00;0.00;;;25.70;42.10;;;;;;4193982;28;20059;-65
2022/09/03 13:23:36;;;;;;;0.00;0.00;;;25.70;41.80;;;;;;4195418;28;20078;-65
2022/09/03 13:26:28;;;;;;;0.00;0.00;;;25.70;41.90;;;;;;4180605;28;20067;-65
2022/09/03 13:29:35;;;;;;;0.00;0.00;;;25.70;42.00;;;;;;4185891;28;20136;-65
2022/09/03 13:32:32;;;;;;;0.00;0.00;;;25.80;41.60;;;;;;4177345;28;20052;-65
2022/09/03 13:35:23;;;;;;;0.00;0.00;;;25.80;42.40;;;;;;4197505;28;20063;-65
2022/09/03 13:38:21;;;;;;;0.08;0.08;;;25.80;42.50;;;;;;4175651;28;20060;-64
2022/09/03 13:41:13;;;;;;;0.00;0.00;;;25.80;42.70;;;;;;4176215;28;20052;-63
2022/09/03 13:44:06;;;;;;;0.00;0.00;;;25.80;42.30;;;;;;4186937;28;21125;-63
2022/09/03 13:46:54;;;;;;;0.10;0.10;;;25.80;42.40;;;;;;4182979;28;20060;-64
2022/09/03 13:52:46;;;;;;;0.10;0.10;;;25.90;41.60;;;;;;4191452;28;20566;-63
2022/09/03 13:55:33;;;;;;;0.00;0.00;;;25.90;41.20;;;;;;4199999;28;20419;-62
2022/09/03 13:58:24;;;;;;;0.10;0.10;;;25.90;41.80;;;;;;4203632;28;20055;-62
2022/09/03 14:01:14;;;;;;;0.00;0.00;;;25.90;41.80;;;;;;4190671;28;20048;-63
2022/09/03 14:04:00;;;;;;;0.10;0.10;;;25.90;41.80;;;;;;4185168;28;20124;-61
2022/09/03 14:06:45;;;;;;;0.00;0.00;;;25.90;41.70;;;;;;4206258;28;20046;-61
2022/09/03 14:09:35;;;;;;;0.00;0.00;;;25.90;41.50;;;;;;4190318;28;20046;-61
2022/09/03 14:12:22;;;;;;;0.00;0.00;;;25.90;41.50;;;;;;4190495;28;20047;-63
2022/09/03 14:15:15;;;;;;;0.00;0.00;;;26.00;41.80;;;;;;4168958;28;20504;-63
2022/09/03 14:18:09;;;;;;;0.00;0.00;;;26.00;41.80;;;;;;4197703;28;20174;-64
2022/09/03 14:20:59;;;;;;;0.00;0.00;;;26.00;42.60;;;;;;4205738;28;20399;-63
2022/09/03 14:23:47;;;;;;;0.00;0.00;;;26.00;41.60;;;;;;4205871;28;20177;-61
2022/09/03 14:26:32;;;;;;;0.00;0.00;;;26.00;42.10;;;;;;4194208;28;20063;-66
2022/09/03 14:29:25;;;;;;;0.00;0.00;;;26.00;42.40;;;;;;4191822;28;20051;-64
2022/09/03 14:32:24;;;;;;;0.00;0.00;;;26.00;42.50;;;;;;4191511;28;20060;-66
2022/09/03 14:35:30;;;;;;;0.00;0.00;;;26.00;42.50;;;;;;4191679;28;20056;-65
2022/09/03 14:38:52;;;;;;;0.00;0.00;;;26.10;42.90;;;;;;4191038;28;20145;-64
2022/09/03 14:41:53;;;;;;;0.00;0.00;;;26.10;42.80;;;;;;4161262;28;20198;-63
2022/09/03 14:45:00;;;;;;;0.00;0.00;;;26.10;43.00;;;;;;4194725;28;20051;-64
2022/09/03 14:48:15;;;;;;;0.03;0.03;;;26.20;42.90;;;;;;4179475;28;20756;-65
2022/09/03 14:51:10;;;;;;;0.05;0.05;;;26.20;43.20;;;;;;4178392;28;20051;-62
2022/09/03 14:54:24;;;;;;;0.00;0.00;;;26.20;42.50;;;;;;4180224;28;20117;-64
2022/09/03 14:57:31;;;;;;;0.00;0.00;;;26.20;41.80;;;;;;4189499;28;20070;-62
2022/09/03 15:00:16;;;;;;;0.00;0.00;;;26.20;41.50;;;;;;4206980;28;20062;-63
2022/09/03 15:03:29;;;;;;;0.00;0.00;;;26.20;42.10;;;;;;4209212;28;20178;-62